Rushford, Minnesota
Current Conditions -  °F | °C
As of 2:14 AM on Thursday 27 Nov 2014 (Local Time) from KONA Reporting Station
Light Snow Light Snow  
Wind Chill:   Ceiling: 1900
Heat Index: 21°   Visibility: 10mi
Dew Point: 16°   Wind: 14mph
Humidity: 80%   Direction: 330°NNW
Pressure: 30.37"   Gusts: NA
Location:  43.81°N, 91.75°W
Report Text: KONA 270814Z AUTO 33012KT 10SM -SN OVC019 M06/M09 A3037 RMK AO2
Loading
Personal Weather Stations






























Interactive Weather Map New forecast layout! Learn more

10-Day Weather Forecast

Advertisements
Track Severe Weather on mobile